This is the latest recevied weather packets stored in our database for station/object OE6JUE. If no packets are shown the sender has not sent any weather packets the latest 1 day(s).
| Time | Temp. | Humidity | Pressure | Rain* | Wind** | Luminosity | Snow |
|---|---|---|---|---|---|---|---|
| 1777964531 | 21.11° C | 40% | 1012.7 hPa | - | 0.45 m/s, 45° | - | - |
| 1777964232 | 21.11° C | 40% | 1012.7 hPa | - | 0.45 m/s, 90° | - | - |
| 1777963932 | 21.11° C | 40% | 1012.8 hPa | - | 0.45 m/s, 135° | - | - |
| 1777963632 | 20.56° C | 42% | 1012.9 hPa | - | 0.45 m/s, 135° | - | - |
| 1777963332 | 20.56° C | 43% | 1012.7 hPa | - | 0.45 m/s, 135° | - | - |
| 1777963032 | 20.56° C | 41% | 1012.8 hPa | - | 0.45 m/s, 90° | - | - |
| 1777962732 | 20.56° C | 42% | 1012.8 hPa | - | 0.45 m/s, 135° | - | - |
| 1777962432 | 20.56° C | 41% | 1012.8 hPa | - | 0.45 m/s, 180° | - | - |
| 1777962132 | 21.11° C | 41% | 1012.7 hPa | - | 0.45 m/s, 45° | - | - |
| 1777961832 | 21.11° C | 42% | 1012.5 hPa | - | 0.45 m/s, 180° | - | - |
| 1777961532 | 20° C | 46% | 1012.5 hPa | - | 0 m/s | - | - |
| 1777961232 | 19.44° C | 47% | 1012.6 hPa | - | 0.45 m/s, 45° | - | - |
| 1777960931 | 19.44° C | 47% | 1012.5 hPa | - | 0 m/s | - | - |
| 1777960632 | 18.89° C | 49% | 1012.6 hPa | - | 0.45 m/s, 23° | - | - |
| 1777960332 | 18.33° C | 50% | 1012.6 hPa | - | 0 m/s | - | - |
| 1777960032 | 17.78° C | 50% | 1012.6 hPa | - | 0.45 m/s, 360° | - | - |
| 1777959731 | 17.22° C | 52% | 1012.5 hPa | - | 0.45 m/s, 45° | - | - |
| 1777959432 | 17.78° C | 51% | 1012.6 hPa | - | 0 m/s | - | - |
| 1777959131 | 17.22° C | 58% | 1012.7 hPa | - | 0 m/s | - | - |
| 1777958832 | 16.11° C | 60% | 1012.6 hPa | - | 0 m/s | - | - |
| 1777958532 | 15° C | 61% | 1012.7 hPa | - | 0 m/s | - | - |
| 1777958232 | 14.44° C | 62% | 1012.7 hPa | - | 0 m/s | - | - |
| 1777957932 | 15° C | 60% | 1012.7 hPa | - | 0 m/s | - | - |
| 1777957632 | 15.56° C | 62% | 1012.7 hPa | - | 0 m/s | - | - |
| 1777957332 | 14.44° C | 65% | 1012.7 hPa | - | 0 m/s | - | - |
* Rain since midnight (hover to see other rain measurements)
** Current wind speed in m/s (hover to see current wind gust speed)